La Marque, Texas
Current Conditions -  °F | °C
As of 7:52 PM on Monday 20 Oct 2014 (Local Time) from KGLS Reporting Station
Clear Clear  
Wind Chill: 23°   Ceiling: Unl
Heat Index: 23°   Visibility: 10mi
Dew Point: 19°   Wind: 5mph
Humidity: 76%   Direction: 60°ENE
Pressure: 30.01"   Gusts: NA
Location:  29.37°N, 94.97°W
Report Text: KGLS 210052Z AUTO 06004KT 10SM CLR 23/19 A3001 RMK AO2 SLP160 T02330189
Loading
Personal Weather Stations






























Interactive Weather Map
Tropical Storm Tracking
New forecast layout! Learn more

10-Day Weather Forecast

Advertisements
Track Severe Weather on mobile